sensor_id;sensor_type;location;lat;lon;timestamp;temperature;humidity
65584;DHT22;62116;43.582;1.470;2023-04-30T00:02:08;16.19;91.08
65584;DHT22;62116;43.582;1.470;2023-04-30T00:04:33;16.23;90.48
65584;DHT22;62116;43.582;1.470;2023-04-30T00:06:58;16.14;90.78
65584;DHT22;62116;43.582;1.470;2023-04-30T00:09:25;16.14;90.83
65584;DHT22;62116;43.582;1.470;2023-04-30T00:11:50;16.05;91.18
65584;DHT22;62116;43.582;1.470;2023-04-30T00:14:16;16.03;91.40
65584;DHT22;62116;43.582;1.470;2023-04-30T00:16:41;16.06;91.43
65584;DHT22;62116;43.582;1.470;2023-04-30T00:19:06;16.03;91.04
65584;DHT22;62116;43.582;1.470;2023-04-30T00:21:32;15.98;91.40
65584;DHT22;62116;43.582;1.470;2023-04-30T00:23:58;15.92;91.50
65584;DHT22;62116;43.582;1.470;2023-04-30T00:26:26;15.89;91.73
65584;DHT22;62116;43.582;1.470;2023-04-30T00:28:52;15.98;91.81
65584;DHT22;62116;43.582;1.470;2023-04-30T00:31:17;15.96;91.40
65584;DHT22;62116;43.582;1.470;2023-04-30T00:33:42;15.92;91.45
65584;DHT22;62116;43.582;1.470;2023-04-30T00:36:08;15.95;91.65
65584;DHT22;62116;43.582;1.470;2023-04-30T00:38:33;15.96;91.09
65584;DHT22;62116;43.582;1.470;2023-04-30T00:40:59;15.92;91.40
65584;DHT22;62116;43.582;1.470;2023-04-30T00:43:25;15.95;91.55
65584;DHT22;62116;43.582;1.470;2023-04-30T00:45:50;15.98;91.77
65584;DHT22;62116;43.582;1.470;2023-04-30T00:48:16;15.98;91.28
65584;DHT22;62116;43.582;1.470;2023-04-30T00:50:42;15.91;91.47
65584;DHT22;62116;43.582;1.470;2023-04-30T00:53:08;15.88;91.48
65584;DHT22;62116;43.582;1.470;2023-04-30T00:55:34;15.93;91.36
65584;DHT22;62116;43.582;1.470;2023-04-30T00:57:59;15.85;91.58
65584;DHT22;62116;43.582;1.470;2023-04-30T01:00:26;15.83;91.76
65584;DHT22;62116;43.582;1.470;2023-04-30T01:02:52;15.86;91.92
65584;DHT22;62116;43.582;1.470;2023-04-30T01:05:18;15.85;92.00
65584;DHT22;62116;43.582;1.470;2023-04-30T01:07:44;15.86;91.81
65584;DHT22;62116;43.582;1.470;2023-04-30T01:10:12;15.82;91.50
65584;DHT22;62116;43.582;1.470;2023-04-30T01:13:05;15.81;91.57
65584;DHT22;62116;43.582;1.470;2023-04-30T01:15:46;15.81;91.83
65584;DHT22;62116;43.582;1.470;2023-04-30T01:18:25;15.81;91.76
65584;DHT22;62116;43.582;1.470;2023-04-30T01:20:55;15.75;91.71
65584;DHT22;62116;43.582;1.470;2023-04-30T01:28:49;15.66;91.55
65584;DHT22;62116;43.582;1.470;2023-04-30T01:31:18;15.61;91.50
65584;DHT22;62116;43.582;1.470;2023-04-30T01:33:43;15.61;91.73
65584;DHT22;62116;43.582;1.470;2023-04-30T01:39:25;15.66;91.75
65584;DHT22;62116;43.582;1.470;2023-04-30T01:47:23;15.63;91.39
65584;DHT22;62116;43.582;1.470;2023-04-30T01:57:41;15.55;91.27
65584;DHT22;62116;43.582;1.470;2023-04-30T02:00:08;15.54;91.22
65584;DHT22;62116;43.582;1.470;2023-04-30T02:02:37;15.51;91.23
65584;DHT22;62116;43.582;1.470;2023-04-30T02:05:02;15.49;91.34
65584;DHT22;62116;43.582;1.470;2023-04-30T02:07:38;15.51;91.35
65584;DHT22;62116;43.582;1.470;2023-04-30T02:10:06;15.52;91.46
65584;DHT22;62116;43.582;1.470;2023-04-30T02:12:31;15.51;91.38
65584;DHT22;62116;43.582;1.470;2023-04-30T02:14:57;15.49;91.59
65584;DHT22;62116;43.582;1.470;2023-04-30T02:17:22;15.51;91.41
65584;DHT22;62116;43.582;1.470;2023-04-30T02:19:47;15.51;91.57
65584;DHT22;62116;43.582;1.470;2023-04-30T02:22:13;15.57;91.64
65584;DHT22;62116;43.582;1.470;2023-04-30T02:24:38;15.57;91.42
65584;DHT22;62116;43.582;1.470;2023-04-30T02:27:03;15.59;91.44
65584;DHT22;62116;43.582;1.470;2023-04-30T02:29:29;15.59;91.38
65584;DHT22;62116;43.582;1.470;2023-04-30T02:31:57;15.55;91.43
65584;DHT22;62116;43.582;1.470;2023-04-30T02:34:23;15.52;91.37
65584;DHT22;62116;43.582;1.470;2023-04-30T02:36:48;15.49;91.31
65584;DHT22;62116;43.582;1.470;2023-04-30T02:39:14;15.45;91.39
65584;DHT22;62116;43.582;1.470;2023-04-30T02:41:39;15.49;91.49
65584;DHT22;62116;43.582;1.470;2023-04-30T02:44:05;15.49;91.49
65584;DHT22;62116;43.582;1.470;2023-04-30T02:46:30;15.51;91.48
65584;DHT22;62116;43.582;1.470;2023-04-30T02:48:55;15.52;91.39
65584;DHT22;62116;43.582;1.470;2023-04-30T02:51:21;15.48;91.26
65584;DHT22;62116;43.582;1.470;2023-04-30T02:53:46;15.44;90.96
65584;DHT22;62116;43.582;1.470;2023-04-30T02:56:12;15.41;91.09
65584;DHT22;62116;43.582;1.470;2023-04-30T02:58:37;15.42;91.25
65584;DHT22;62116;43.582;1.470;2023-04-30T03:01:03;15.42;91.36
65584;DHT22;62116;43.582;1.470;2023-04-30T03:03:28;15.45;91.26
65584;DHT22;62116;43.582;1.470;2023-04-30T03:05:53;15.44;91.20
65584;DHT22;62116;43.582;1.470;2023-04-30T03:08:20;15.45;91.31
65584;DHT22;62116;43.582;1.470;2023-04-30T03:10:46;15.44;91.38
65584;DHT22;62116;43.582;1.470;2023-04-30T03:13:11;15.41;91.22
65584;DHT22;62116;43.582;1.470;2023-04-30T03:15:37;15.44;91.31
65584;DHT22;62116;43.582;1.470;2023-04-30T03:18:03;15.42;91.25
65584;DHT22;62116;43.582;1.470;2023-04-30T03:20:28;15.47;91.43
65584;DHT22;62116;43.582;1.470;2023-04-30T03:22:54;15.44;91.17
65584;DHT22;62116;43.582;1.470;2023-04-30T03:25:19;15.42;91.17
65584;DHT22;62116;43.582;1.470;2023-04-30T03:27:45;15.42;91.28
65584;DHT22;62116;43.582;1.470;2023-04-30T03:30:10;15.44;91.09
65584;DHT22;62116;43.582;1.470;2023-04-30T03:32:35;15.42;91.23
65584;DHT22;62116;43.582;1.470;2023-04-30T03:35:01;15.44;91.34
65584;DHT22;62116;43.582;1.470;2023-04-30T03:37:26;15.44;91.23
65584;DHT22;62116;43.582;1.470;2023-04-30T03:39:52;15.39;91.23
65584;DHT22;62116;43.582;1.470;2023-04-30T03:42:17;15.42;91.29
65584;DHT22;62116;43.582;1.470;2023-04-30T03:44:42;15.41;91.28
65584;DHT22;62116;43.582;1.470;2023-04-30T03:47:08;15.39;91.14
65584;DHT22;62116;43.582;1.470;2023-04-30T03:49:33;15.38;91.25
65584;DHT22;62116;43.582;1.470;2023-04-30T03:51:59;15.39;91.26
65584;DHT22;62116;43.582;1.470;2023-04-30T03:54:25;15.37;91.16
65584;DHT22;62116;43.582;1.470;2023-04-30T03:56:50;15.35;91.18
65584;DHT22;62116;43.582;1.470;2023-04-30T03:59:16;15.38;91.33
65584;DHT22;62116;43.582;1.470;2023-04-30T04:01:42;15.37;91.20
65584;DHT22;62116;43.582;1.470;2023-04-30T04:04:08;15.37;91.23
65584;DHT22;62116;43.582;1.470;2023-04-30T04:06:33;15.38;91.12
65584;DHT22;62116;43.582;1.470;2023-04-30T04:08:59;15.41;91.25
65584;DHT22;62116;43.582;1.470;2023-04-30T04:11:24;15.39;91.15
65584;DHT22;62116;43.582;1.470;2023-04-30T04:13:50;15.41;91.05
65584;DHT22;62116;43.582;1.470;2023-04-30T04:16:15;15.38;90.89
65584;DHT22;62116;43.582;1.470;2023-04-30T04:18:41;15.37;91.15
65584;DHT22;62116;43.582;1.470;2023-04-30T04:21:06;15.34;91.33
65584;DHT22;62116;43.582;1.470;2023-04-30T04:23:32;15.34;91.43
65584;DHT22;62116;43.582;1.470;2023-04-30T04:25:57;15.32;91.40
65584;DHT22;62116;43.582;1.470;2023-04-30T04:28:22;15.31;91.48
65584;DHT22;62116;43.582;1.470;2023-04-30T04:30:48;15.32;91.66
65584;DHT22;62116;43.582;1.470;2023-04-30T04:33:13;15.34;91.61
65584;DHT22;62116;43.582;1.470;2023-04-30T04:35:39;15.35;91.57
65584;DHT22;62116;43.582;1.470;2023-04-30T04:38:04;15.30;91.42
65584;DHT22;62116;43.582;1.470;2023-04-30T04:40:30;15.31;91.62
65584;DHT22;62116;43.582;1.470;2023-04-30T04:42:55;15.34;91.62
65584;DHT22;62116;43.582;1.470;2023-04-30T04:45:21;15.37;91.57
65584;DHT22;62116;43.582;1.470;2023-04-30T04:47:46;15.38;91.47
65584;DHT22;62116;43.582;1.470;2023-04-30T04:50:12;15.34;91.30
65584;DHT22;62116;43.582;1.470;2023-04-30T04:52:38;15.31;91.46
65584;DHT22;62116;43.582;1.470;2023-04-30T04:55:04;15.24;91.51
65584;DHT22;62116;43.582;1.470;2023-04-30T04:57:30;15.28;91.40
65584;DHT22;62116;43.582;1.470;2023-04-30T04:59:55;15.28;91.51
65584;DHT22;62116;43.582;1.470;2023-04-30T05:02:21;15.25;91.61
65584;DHT22;62116;43.582;1.470;2023-04-30T05:04:48;15.25;91.71
65584;DHT22;62116;43.582;1.470;2023-04-30T05:07:17;15.24;91.66
65584;DHT22;62116;43.582;1.470;2023-04-30T05:09:44;15.24;91.75
65584;DHT22;62116;43.582;1.470;2023-04-30T05:12:11;15.21;91.61
65584;DHT22;62116;43.582;1.470;2023-04-30T05:14:39;15.23;91.88
65584;DHT22;62116;43.582;1.470;2023-04-30T05:17:05;15.20;91.66
65584;DHT22;62116;43.582;1.470;2023-04-30T05:19:31;15.18;91.94
65584;DHT22;62116;43.582;1.470;2023-04-30T05:21:57;15.21;91.72
65584;DHT22;62116;43.582;1.470;2023-04-30T05:24:22;15.20;91.59
65584;DHT22;62116;43.582;1.470;2023-04-30T05:26:48;15.17;91.60
65584;DHT22;62116;43.582;1.470;2023-04-30T05:29:13;15.20;91.75
65584;DHT22;62116;43.582;1.470;2023-04-30T05:31:38;15.20;91.67
65584;DHT22;62116;43.582;1.470;2023-04-30T05:34:04;15.18;91.71
65584;DHT22;62116;43.582;1.470;2023-04-30T05:36:30;15.18;91.55
65584;DHT22;62116;43.582;1.470;2023-04-30T05:38:56;15.18;91.80
65584;DHT22;62116;43.582;1.470;2023-04-30T05:41:22;15.20;91.62
65584;DHT22;62116;43.582;1.470;2023-04-30T05:43:47;15.18;91.61
65584;DHT22;62116;43.582;1.470;2023-04-30T05:46:13;15.18;91.58
65584;DHT22;62116;43.582;1.470;2023-04-30T05:48:38;15.21;91.64
65584;DHT22;62116;43.582;1.470;2023-04-30T05:51:04;15.17;91.56
65584;DHT22;62116;43.582;1.470;2023-04-30T05:53:32;15.18;91.34
65584;DHT22;62116;43.582;1.470;2023-04-30T05:55:57;15.17;91.32
65584;DHT22;62116;43.582;1.470;2023-04-30T05:58:24;15.21;91.37
65584;DHT22;62116;43.582;1.470;2023-04-30T06:00:49;15.17;91.40
65584;DHT22;62116;43.582;1.470;2023-04-30T06:03:18;15.14;91.46
65584;DHT22;62116;43.582;1.470;2023-04-30T06:05:45;15.12;91.53
65584;DHT22;62116;43.582;1.470;2023-04-30T06:08:11;15.14;91.67
65584;DHT22;62116;43.582;1.470;2023-04-30T06:10:36;15.17;91.52
65584;DHT22;62116;43.582;1.470;2023-04-30T06:13:03;15.15;91.48
65584;DHT22;62116;43.582;1.470;2023-04-30T06:15:28;15.15;91.59
65584;DHT22;62116;43.582;1.470;2023-04-30T06:17:54;15.15;91.37
65584;DHT22;62116;43.582;1.470;2023-04-30T06:20:19;15.15;91.35
65584;DHT22;62116;43.582;1.470;2023-04-30T06:22:45;15.15;91.38
65584;DHT22;62116;43.582;1.470;2023-04-30T06:25:10;15.17;91.40
65584;DHT22;62116;43.582;1.470;2023-04-30T06:27:38;15.20;91.25
65584;DHT22;62116;43.582;1.470;2023-04-30T06:30:04;15.21;91.41
65584;DHT22;62116;43.582;1.470;2023-04-30T06:32:29;15.23;91.25
65584;DHT22;62116;43.582;1.470;2023-04-30T06:34:55;15.24;91.03
65584;DHT22;62116;43.582;1.470;2023-04-30T06:37:20;15.18;90.80
65584;DHT22;62116;43.582;1.470;2023-04-30T06:39:46;15.20;91.07
65584;DHT22;62116;43.582;1.470;2023-04-30T06:42:11;15.18;91.24
65584;DHT22;62116;43.582;1.470;2023-04-30T06:44:37;15.24;91.13
65584;DHT22;62116;43.582;1.470;2023-04-30T06:47:02;15.24;91.02
65584;DHT22;62116;43.582;1.470;2023-04-30T06:49:27;15.35;91.21
65584;DHT22;62116;43.582;1.470;2023-04-30T06:51:53;15.35;90.75
65584;DHT22;62116;43.582;1.470;2023-04-30T06:54:20;15.35;90.64
65584;DHT22;62116;43.582;1.470;2023-04-30T06:56:47;15.37;90.61
65584;DHT22;62116;43.582;1.470;2023-04-30T06:59:12;15.42;90.53
65584;DHT22;62116;43.582;1.470;2023-04-30T07:01:37;15.48;90.49
65584;DHT22;62116;43.582;1.470;2023-04-30T07:04:03;15.49;90.27
65584;DHT22;62116;43.582;1.470;2023-04-30T07:06:28;15.54;90.24
65584;DHT22;62116;43.582;1.470;2023-04-30T07:08:54;15.54;90.21
65584;DHT22;62116;43.582;1.470;2023-04-30T07:11:20;15.52;89.95
65584;DHT22;62116;43.582;1.470;2023-04-30T07:13:45;15.49;89.66
65584;DHT22;62116;43.582;1.470;2023-04-30T07:16:11;15.48;89.96
65584;DHT22;62116;43.582;1.470;2023-04-30T07:18:39;15.51;89.94
65584;DHT22;62116;43.582;1.470;2023-04-30T07:21:05;15.55;89.77
65584;DHT22;62116;43.582;1.470;2023-04-30T07:23:30;15.52;89.60
65584;DHT22;62116;43.582;1.470;2023-04-30T07:25:56;15.48;89.85
65584;DHT22;62116;43.582;1.470;2023-04-30T07:28:21;15.51;89.68
65584;DHT22;62116;43.582;1.470;2023-04-30T07:30:46;15.47;89.60
65584;DHT22;62116;43.582;1.470;2023-04-30T07:33:12;15.48;89.39
65584;DHT22;62116;43.582;1.470;2023-04-30T07:35:37;15.51;89.61
65584;DHT22;62116;43.582;1.470;2023-04-30T07:38:03;15.48;89.32
65584;DHT22;62116;43.582;1.470;2023-04-30T07:40:30;15.48;89.25
65584;DHT22;62116;43.582;1.470;2023-04-30T07:42:55;15.49;89.13
65584;DHT22;62116;43.582;1.470;2023-04-30T07:45:20;15.51;89.11
65584;DHT22;62116;43.582;1.470;2023-04-30T07:47:46;15.48;88.57
65584;DHT22;62116;43.582;1.470;2023-04-30T07:50:12;15.45;88.74
65584;DHT22;62116;43.582;1.470;2023-04-30T07:52:39;15.51;88.48
65584;DHT22;62116;43.582;1.470;2023-04-30T07:55:05;15.49;88.57
65584;DHT22;62116;43.582;1.470;2023-04-30T07:57:31;15.51;87.76
65584;DHT22;62116;43.582;1.470;2023-04-30T07:59:56;15.48;87.73
65584;DHT22;62116;43.582;1.470;2023-04-30T08:02:22;15.45;87.75
65584;DHT22;62116;43.582;1.470;2023-04-30T08:04:47;15.39;87.44
65584;DHT22;62116;43.582;1.470;2023-04-30T08:07:13;15.37;87.20
65584;DHT22;62116;43.582;1.470;2023-04-30T08:09:40;15.38;87.49
65584;DHT22;62116;43.582;1.470;2023-04-30T08:12:05;15.39;87.59
65584;DHT22;62116;43.582;1.470;2023-04-30T08:14:31;15.41;87.27
65584;DHT22;62116;43.582;1.470;2023-04-30T08:16:57;15.42;87.62
65584;DHT22;62116;43.582;1.470;2023-04-30T08:19:23;15.48;87.40
65584;DHT22;62116;43.582;1.470;2023-04-30T08:21:49;15.48;87.69
65584;DHT22;62116;43.582;1.470;2023-04-30T08:24:14;15.44;87.50
65584;DHT22;62116;43.582;1.470;2023-04-30T08:26:40;15.49;87.64
65584;DHT22;62116;43.582;1.470;2023-04-30T08:29:05;15.45;87.66
65584;DHT22;62116;43.582;1.470;2023-04-30T08:31:32;15.47;87.60
65584;DHT22;62116;43.582;1.470;2023-04-30T08:33:58;15.41;87.40
65584;DHT22;62116;43.582;1.470;2023-04-30T08:36:23;15.38;87.27
65584;DHT22;62116;43.582;1.470;2023-04-30T08:38:49;15.32;87.45
65584;DHT22;62116;43.582;1.470;2023-04-30T08:41:14;15.27;87.82
65584;DHT22;62116;43.582;1.470;2023-04-30T08:43:41;15.27;87.98
65584;DHT22;62116;43.582;1.470;2023-04-30T08:46:08;15.30;87.99
65584;DHT22;62116;43.582;1.470;2023-04-30T08:48:35;15.27;87.66
65584;DHT22;62116;43.582;1.470;2023-04-30T08:51:02;15.28;88.03
65584;DHT22;62116;43.582;1.470;2023-04-30T08:53:34;15.31;87.86
65584;DHT22;62116;43.582;1.470;2023-04-30T08:56:00;15.30;87.75
65584;DHT22;62116;43.582;1.470;2023-04-30T08:58:27;15.30;87.85
65584;DHT22;62116;43.582;1.470;2023-04-30T09:00:52;15.25;87.58
65584;DHT22;62116;43.582;1.470;2023-04-30T09:03:17;15.25;87.50
65584;DHT22;62116;43.582;1.470;2023-04-30T09:05:43;15.20;87.72
65584;DHT22;62116;43.582;1.470;2023-04-30T09:08:16;15.21;88.01
65584;DHT22;62116;43.582;1.470;2023-04-30T09:10:42;15.24;88.13
65584;DHT22;62116;43.582;1.470;2023-04-30T09:13:08;15.28;88.20
65584;DHT22;62116;43.582;1.470;2023-04-30T09:15:38;15.30;88.35
65584;DHT22;62116;43.582;1.470;2023-04-30T09:20:35;15.28;88.05
65584;DHT22;62116;43.582;1.470;2023-04-30T09:23:08;15.25;88.26
65584;DHT22;62116;43.582;1.470;2023-04-30T09:25:41;15.30;88.55
65584;DHT22;62116;43.582;1.470;2023-04-30T09:28:11;15.32;88.21
65584;DHT22;62116;43.582;1.470;2023-04-30T09:30:38;15.37;88.25
65584;DHT22;62116;43.582;1.470;2023-04-30T09:33:04;15.37;88.20
65584;DHT22;62116;43.582;1.470;2023-04-30T09:35:37;15.41;88.38
65584;DHT22;62116;43.582;1.470;2023-04-30T09:38:03;15.42;88.08
65584;DHT22;62116;43.582;1.470;2023-04-30T09:40:40;15.41;88.01
65584;DHT22;62116;43.582;1.470;2023-04-30T09:43:07;15.39;88.10
65584;DHT22;62116;43.582;1.470;2023-04-30T09:45:43;15.38;88.24
65584;DHT22;62116;43.582;1.470;2023-04-30T09:48:11;15.35;88.29
65584;DHT22;62116;43.582;1.470;2023-04-30T09:50:41;15.34;88.22
65584;DHT22;62116;43.582;1.470;2023-04-30T09:53:11;15.28;88.40
65584;DHT22;62116;43.582;1.470;2023-04-30T09:55:49;15.24;88.68
65584;DHT22;62116;43.582;1.470;2023-04-30T09:58:16;15.31;88.42
65584;DHT22;62116;43.582;1.470;2023-04-30T10:00:44;15.28;88.65
65584;DHT22;62116;43.582;1.470;2023-04-30T10:03:11;15.28;88.61
65584;DHT22;62116;43.582;1.470;2023-04-30T10:05:40;15.28;88.70
65584;DHT22;62116;43.582;1.470;2023-04-30T10:08:14;15.30;88.80
65584;DHT22;62116;43.582;1.470;2023-04-30T10:10:46;15.30;88.81
65584;DHT22;62116;43.582;1.470;2023-04-30T10:13:18;15.39;88.84
65584;DHT22;62116;43.582;1.470;2023-04-30T10:15:53;15.37;88.95
65584;DHT22;62116;43.582;1.470;2023-04-30T10:18:53;15.38;89.08
65584;DHT22;62116;43.582;1.470;2023-04-30T10:21:14;15.39;88.94
65584;DHT22;62116;43.582;1.470;2023-04-30T10:23:43;15.39;88.95
65584;DHT22;62116;43.582;1.470;2023-04-30T10:26:11;15.41;88.87
65584;DHT22;62116;43.582;1.470;2023-04-30T10:28:37;15.41;88.80
65584;DHT22;62116;43.582;1.470;2023-04-30T10:31:06;15.39;88.88
65584;DHT22;62116;43.582;1.470;2023-04-30T10:33:48;15.38;88.51
65584;DHT22;62116;43.582;1.470;2023-04-30T10:39:20;15.47;88.81
65584;DHT22;62116;43.582;1.470;2023-04-30T10:41:47;15.52;88.35
65584;DHT22;62116;43.582;1.470;2023-04-30T10:44:20;15.55;88.38
65584;DHT22;62116;43.582;1.470;2023-04-30T10:46:57;15.62;87.39
65584;DHT22;62116;43.582;1.470;2023-04-30T10:49:26;15.63;87.46
65584;DHT22;62116;43.582;1.470;2023-04-30T10:51:51;15.68;87.36
65584;DHT22;62116;43.582;1.470;2023-04-30T10:54:25;15.65;87.57
65584;DHT22;62116;43.582;1.470;2023-04-30T10:56:52;15.72;87.57
65584;DHT22;62116;43.582;1.470;2023-04-30T10:59:17;15.79;86.86
65584;DHT22;62116;43.582;1.470;2023-04-30T11:01:58;15.81;86.59
65584;DHT22;62116;43.582;1.470;2023-04-30T11:04:23;15.78;86.34
65584;DHT22;62116;43.582;1.470;2023-04-30T11:09:35;15.77;86.53
65584;DHT22;62116;43.582;1.470;2023-04-30T11:12:02;15.79;86.63
65584;DHT22;62116;43.582;1.470;2023-04-30T11:14:31;15.82;86.64
65584;DHT22;62116;43.582;1.470;2023-04-30T11:16:58;15.86;86.72
65584;DHT22;62116;43.582;1.470;2023-04-30T11:19:26;15.89;86.71
65584;DHT22;62116;43.582;1.470;2023-04-30T11:27:24;16.06;85.73
65584;DHT22;62116;43.582;1.470;2023-04-30T11:29:51;16.08;85.69
65584;DHT22;62116;43.582;1.470;2023-04-30T11:32:21;16.13;85.40
65584;DHT22;62116;43.582;1.470;2023-04-30T11:34:53;16.16;84.85
65584;DHT22;62116;43.582;1.470;2023-04-30T11:37:36;16.08;84.76
65584;DHT22;62116;43.582;1.470;2023-04-30T11:40:06;16.09;85.47
65584;DHT22;62116;43.582;1.470;2023-04-30T11:42:32;16.08;85.21
65584;DHT22;62116;43.582;1.470;2023-04-30T11:45:11;16.03;85.24
65584;DHT22;62116;43.582;1.470;2023-04-30T11:47:48;16.09;85.51
65584;DHT22;62116;43.582;1.470;2023-04-30T11:50:19;16.03;85.21
65584;DHT22;62116;43.582;1.470;2023-04-30T11:52:51;16.08;85.26
65584;DHT22;62116;43.582;1.470;2023-04-30T11:55:20;16.14;85.45
65584;DHT22;62116;43.582;1.470;2023-04-30T11:57:47;16.24;85.44
65584;DHT22;62116;43.582;1.470;2023-04-30T12:00:17;16.26;84.96
65584;DHT22;62116;43.582;1.470;2023-04-30T12:02:44;16.29;84.39
65584;DHT22;62116;43.582;1.470;2023-04-30T12:05:15;16.32;84.31
65584;DHT22;62116;43.582;1.470;2023-04-30T12:08:02;16.42;84.03
65584;DHT22;62116;43.582;1.470;2023-04-30T12:10:34;16.46;84.33
65584;DHT22;62116;43.582;1.470;2023-04-30T12:13:00;16.50;83.79
65584;DHT22;62116;43.582;1.470;2023-04-30T12:15:26;16.63;83.68
65584;DHT22;62116;43.582;1.470;2023-04-30T12:17:56;16.70;83.67
65584;DHT22;62116;43.582;1.470;2023-04-30T12:20:23;16.81;83.22
65584;DHT22;62116;43.582;1.470;2023-04-30T12:22:49;16.87;83.32
65584;DHT22;62116;43.582;1.470;2023-04-30T12:25:20;16.94;82.64
65584;DHT22;62116;43.582;1.470;2023-04-30T12:27:52;17.04;82.98
65584;DHT22;62116;43.582;1.470;2023-04-30T12:30:19;17.11;82.95
65584;DHT22;62116;43.582;1.470;2023-04-30T12:32:49;17.17;81.87
65584;DHT22;62116;43.582;1.470;2023-04-30T12:35:17;17.18;81.77
65584;DHT22;62116;43.582;1.470;2023-04-30T12:38:01;17.32;81.82
65584;DHT22;62116;43.582;1.470;2023-04-30T12:40:26;17.46;81.08
65584;DHT22;62116;43.582;1.470;2023-04-30T12:43:13;17.52;81.15
65584;DHT22;62116;43.582;1.470;2023-04-30T12:48:20;17.59;80.98
65584;DHT22;62116;43.582;1.470;2023-04-30T12:50:59;17.61;80.44
65584;DHT22;62116;43.582;1.470;2023-04-30T12:53:29;17.58;79.76
65584;DHT22;62116;43.582;1.470;2023-04-30T12:56:15;17.69;80.34
65584;DHT22;62116;43.582;1.470;2023-04-30T12:58:43;17.85;80.14
65584;DHT22;62116;43.582;1.470;2023-04-30T13:01:15;18.02;79.68
65584;DHT22;62116;43.582;1.470;2023-04-30T13:03:40;18.13;79.16
65584;DHT22;62116;43.582;1.470;2023-04-30T13:06:06;18.25;78.84
65584;DHT22;62116;43.582;1.470;2023-04-30T13:08:34;18.40;78.35
65584;DHT22;62116;43.582;1.470;2023-04-30T13:10:59;18.53;77.06
65584;DHT22;62116;43.582;1.470;2023-04-30T13:13:25;18.56;76.68
65584;DHT22;62116;43.582;1.470;2023-04-30T13:15:50;18.50;77.01
65584;DHT22;62116;43.582;1.470;2023-04-30T13:18:16;18.44;76.53
65584;DHT22;62116;43.582;1.470;2023-04-30T13:20:41;18.51;77.39
65584;DHT22;62116;43.582;1.470;2023-04-30T13:23:10;18.59;76.58
65584;DHT22;62116;43.582;1.470;2023-04-30T13:25:39;18.61;75.95
65584;DHT22;62116;43.582;1.470;2023-04-30T13:28:06;18.75;75.55
65584;DHT22;62116;43.582;1.470;2023-04-30T13:30:31;18.84;74.79
65584;DHT22;62116;43.582;1.470;2023-04-30T13:32:57;18.84;75.24
65584;DHT22;62116;43.582;1.470;2023-04-30T13:35:23;18.77;75.05
65584;DHT22;62116;43.582;1.470;2023-04-30T13:37:48;18.78;75.36
65584;DHT22;62116;43.582;1.470;2023-04-30T13:40:17;18.75;74.28
65584;DHT22;62116;43.582;1.470;2023-04-30T13:42:44;18.92;74.46
65584;DHT22;62116;43.582;1.470;2023-04-30T13:45:10;18.91;73.42
65584;DHT22;62116;43.582;1.470;2023-04-30T13:47:35;18.94;73.29
65584;DHT22;62116;43.582;1.470;2023-04-30T13:50:02;18.95;73.19
65584;DHT22;62116;43.582;1.470;2023-04-30T13:52:27;19.04;74.01
65584;DHT22;62116;43.582;1.470;2023-04-30T13:54:53;19.04;74.54
65584;DHT22;62116;43.582;1.470;2023-04-30T13:57:18;19.14;73.24
65584;DHT22;62116;43.582;1.470;2023-04-30T13:59:44;19.14;72.62
65584;DHT22;62116;43.582;1.470;2023-04-30T14:02:10;19.18;72.82
65584;DHT22;62116;43.582;1.470;2023-04-30T14:04:36;19.21;72.60
65584;DHT22;62116;43.582;1.470;2023-04-30T14:07:02;19.21;72.85
65584;DHT22;62116;43.582;1.470;2023-04-30T14:09:29;19.18;72.83
65584;DHT22;62116;43.582;1.470;2023-04-30T14:11:55;19.25;73.17
65584;DHT22;62116;43.582;1.470;2023-04-30T14:14:24;19.24;73.50
65584;DHT22;62116;43.582;1.470;2023-04-30T14:16:53;19.28;72.98
65584;DHT22;62116;43.582;1.470;2023-04-30T14:19:20;19.39;72.65
65584;DHT22;62116;43.582;1.470;2023-04-30T14:21:45;19.46;72.23
65584;DHT22;62116;43.582;1.470;2023-04-30T14:24:11;19.61;72.49
65584;DHT22;62116;43.582;1.470;2023-04-30T14:26:37;19.77;71.42
65584;DHT22;62116;43.582;1.470;2023-04-30T14:29:03;19.87;72.32
65584;DHT22;62116;43.582;1.470;2023-04-30T14:31:28;20.01;70.41
65584;DHT22;62116;43.582;1.470;2023-04-30T14:33:54;19.92;70.04
65584;DHT22;62116;43.582;1.470;2023-04-30T14:36:20;19.76;70.20
65584;DHT22;62116;43.582;1.470;2023-04-30T14:38:45;19.80;71.14
65584;DHT22;62116;43.582;1.470;2023-04-30T14:41:11;19.83;70.02
65584;DHT22;62116;43.582;1.470;2023-04-30T14:43:37;19.90;70.61
65584;DHT22;62116;43.582;1.470;2023-04-30T14:46:02;19.99;69.99
65584;DHT22;62116;43.582;1.470;2023-04-30T14:48:30;20.06;68.72
65584;DHT22;62116;43.582;1.470;2023-04-30T14:51:00;19.99;68.99
65584;DHT22;62116;43.582;1.470;2023-04-30T14:53:26;20.06;68.90
65584;DHT22;62116;43.582;1.470;2023-04-30T14:55:52;20.01;68.17
65584;DHT22;62116;43.582;1.470;2023-04-30T14:58:17;19.99;69.07
65584;DHT22;62116;43.582;1.470;2023-04-30T15:00:46;20.01;69.09
65584;DHT22;62116;43.582;1.470;2023-04-30T15:03:21;20.05;69.96
65584;DHT22;62116;43.582;1.470;2023-04-30T15:05:47;20.00;67.48
65584;DHT22;62116;43.582;1.470;2023-04-30T15:08:14;20.05;67.10
65584;DHT22;62116;43.582;1.470;2023-04-30T15:10:40;20.10;66.80
65584;DHT22;62116;43.582;1.470;2023-04-30T15:13:06;20.09;67.07
65584;DHT22;62116;43.582;1.470;2023-04-30T15:15:32;19.99;66.36
65584;DHT22;62116;43.582;1.470;2023-04-30T15:17:59;20.00;67.41
65584;DHT22;62116;43.582;1.470;2023-04-30T15:20:24;19.97;67.36
65584;DHT22;62116;43.582;1.470;2023-04-30T15:22:53;19.86;66.94
65584;DHT22;62116;43.582;1.470;2023-04-30T15:25:21;19.97;67.52
65584;DHT22;62116;43.582;1.470;2023-04-30T15:27:51;20.01;67.66
65584;DHT22;62116;43.582;1.470;2023-04-30T15:30:17;20.07;67.07
65584;DHT22;62116;43.582;1.470;2023-04-30T15:32:43;20.13;66.63
65584;DHT22;62116;43.582;1.470;2023-04-30T15:35:08;20.13;66.68
65584;DHT22;62116;43.582;1.470;2023-04-30T15:37:35;20.16;66.78
65584;DHT22;62116;43.582;1.470;2023-04-30T15:40:01;20.17;66.66
65584;DHT22;62116;43.582;1.470;2023-04-30T15:42:26;20.10;66.86
65584;DHT22;62116;43.582;1.470;2023-04-30T15:44:52;20.00;67.16
65584;DHT22;62116;43.582;1.470;2023-04-30T15:47:17;19.87;66.90
65584;DHT22;62116;43.582;1.470;2023-04-30T15:49:43;19.75;67.12
65584;DHT22;62116;43.582;1.470;2023-04-30T15:52:08;19.63;67.59
65584;DHT22;62116;43.582;1.470;2023-04-30T15:54:34;19.55;67.69
65584;DHT22;62116;43.582;1.470;2023-04-30T15:57:00;19.48;67.99
65584;DHT22;62116;43.582;1.470;2023-04-30T15:59:27;19.48;68.06
65584;DHT22;62116;43.582;1.470;2023-04-30T16:01:52;19.38;69.73
65584;DHT22;62116;43.582;1.470;2023-04-30T16:04:18;19.21;69.34
65584;DHT22;62116;43.582;1.470;2023-04-30T16:06:43;18.95;70.38
65584;DHT22;62116;43.582;1.470;2023-04-30T16:09:20;18.71;71.27